Jewell Valley, Virginia
Current Conditions -  °F | °C
As of 2:55 AM on Saturday 20 Dec 2014 (Local Time) from KJFZ Reporting Station
Scattered Clouds Scattered Clouds  
Wind Chill: 28°   Ceiling: Unl
Heat Index: 28°   Visibility: 10mi
Dew Point: 23°   Wind: 0mph
Humidity: 81%   Direction: NA
Pressure: 30.11"   Gusts: NA
Location:  37.2274°N, 81.8121°W
Report Text: KJFZ 200755Z AUTO 00000KT 10SM SCT120 M02/M05 A3011 RMK AO2 T10221051
Loading
Personal Weather Stations






























Interactive Weather Map New forecast layout! Learn more

10-Day Weather Forecast

Advertisements
Track Severe Weather on mobile